FGBT

Details ICAO FGBT (BSG)
Name BATA
Region Equatorial Guinea
Timezone Africa/Malabo (UTC+1.0)
Plans Departing 4
Arriving 6
Stats Elevation 13 ft / 4 m (AMSL)
Location 1.905468° 9.805680°
Runways 1
Magnetic Variation 1.503° W
Sunrise 2017-12-11 05:15:05 UTC / 2017-12-11 06:15:05 Local
Sunset 2017-12-11 17:15:52 UTC / 2017-12-11 18:15:52 Local
Advertisement - Login to hide

Runways

ID Width Length Bearing (true) Bearing (mag) Surface Threshold Offset Overrun Length
04 148 ft / 45 m 6,577 ft / 2,005 m 40.97° 42.47° Asphalt 0 ft / 0 m 0 ft / 0 m
22 148 ft / 45 m 6,577 ft / 2,005 m 220.97° 222.47° Asphalt 0 ft / 0 m 0 ft / 0 m

Map

Weather


0- 5 10 15 20 25 30 35+ Temperature / ° C

Clouds and Precipitation
Forecast for 2017-12-12 00:00 UTC. Updated 2 hours ago

Ground ~20,000 ft ~40,000 ft Winds

METAR

FGBT 112200Z 00000KT 9999 SCT010 BKN100 27/26 Q1011

TAF

TAF TAF FGBT 111100Z 1112/1212 22008KT 9999 SCT010 PROB30 TEMPO 1121/1205 TS BKN010 FEW018CB

Frequencies

Tower 118.80 MHz TWR
Warning: Do not use this data for real-world aviation or navigation. No guarantee of current accuracy is given.